Details From LFLL - Lyon Saint Exupery
To LFLC - Clermont Ferrand Aulnat
Flight Number -
Tags Generated
Created
Modified
Stats Distance 81 nm / 151 km
Max Altitude 0 ft / 0 m
Waypoints 2
Social Downloads 3
Likes 0
Share VATSIM

Download

Looking for another format? Having issues loading an existing format? Contact us
Advertisement - Login to hide

Notes

Generated

Route

LFLL LFLC

ID Type Via Altitude Latitude Longitude Leg Dist Tot Dist Heading (true) Name
O LFLL APT - 0 ft / 0 m 45.73499˚ 5.09188˚ - 0 nm - Lyon Saint Exupery
O LFLC APT - 0 ft / 0 m 45.78482˚ 3.15082˚ 81 nm 81 nm 273° / 271° -

Altitude Profile

Advertisement - Login to hide

LFLL

Details ICAO LFLL (LYS)
Name Lyon Saint Exupery
Region France
Timezone Europe/Paris (UTC+1.0)
Stats Elevation 820 ft / 250 m (AMSL)
Location 45.725812° 5.090748°
Runways 2
Magnetic Variation 1.487° E

METAR

LFLL 111500Z 17007KT 9999 -RA FEW046 OVC053 08/05 Q0986 BECMG CAVOK

Decode

TAF

TAF LFLL 111100Z 1112/1218 24015KT 9999 -RA SCT020 OVC040 PROB40 TEMPO 1112/1113 4000 RA BKN020 BECMG 1113/1115 18015G25KT CAVOK BECMG 1200/1202 34005KT TEMPO 1200/1207 4000 -RA BKN009 TEMPO 1207/1211 BKN006 PROB30 TEMPO 1207/1211 VRB02KT 2000 -SNRA BKN004

Decode

Departure Runways

ID Width Length Bearing (true) Bearing (mag) Surface Threshold Offset Overrun Length
18L 148 ft / 45 m 8,798 ft / 2,682 m 175.13° 173.64° Asphalt 33 ft / 10 m 52 ft / 16 m
18R 148 ft / 45 m 13,149 ft / 4,008 m 175.14° 173.65° Asphalt 16 ft / 5 m 203 ft / 62 m
36L 148 ft / 45 m 13,149 ft / 4,008 m 355.15° 353.66° Asphalt 36 ft / 11 m 151 ft / 46 m
36R 148 ft / 45 m 8,798 ft / 2,682 m 355.13° 353.64° Asphalt 26 ft / 8 m 52 ft / 16 m

LFLC

Details ICAO LFLC (CFE)
Name Clermont-Ferrand_Auvergne
Region France
Timezone Europe/Paris (UTC+1.0)
Stats Elevation 1,089 ft / 332 m (AMSL)
Location 45.786712° 3.169967°
Runways 1
Magnetic Variation 0.979° E

METAR

LFLC 111500Z AUTO 20015KT CAVOK 09/02 Q0985 TEMPO 20020G35KT

Decode

TAF

TAF LFLC 111400Z 1115/1215 20017G27KT 9999 SCT042 BKN120 TEMPO 1115/1116 20020G35KT BECMG 1116/1119 22006KT BKN030 TEMPO 1119/1122 BKN014 BECMG 1122/1124 36004KT BKN020 TEMPO 1203/1207 VRB02KT 4000 -SHRA BKN012 BECMG 1209/1212 SCT017

Decode

Destination Runways

ID Width Length Bearing (true) Bearing (mag) Surface Threshold Offset Overrun Length
08 148 ft / 45 m 9,878 ft / 3,011 m 81.95° 80.97° Asphalt 0 ft / 0 m 0 ft / 0 m
26 148 ft / 45 m 9,878 ft / 3,011 m 261.98° 261.00° Asphalt 476 ft / 145 m 0 ft / 0 m

Approach Navaids

Runway Type Ident Frequency Range Bearing (true) Bearing (mag) Slope Elevation
26 Localiser CF 111.10 MHz 27 nm / 50 km 261.98° 261.00° - 1,089 ft / 332 m (AMSL)
26 Glidescope CF 111.10 MHz 27 nm / 50 km 261.98° 261.00° 3.00° 1,089 ft / 332 m (AMSL)
26 DME CF 111.10 MHz 27 nm / 50 km - - - 1,089 ft / 332 m (AMSL)

Popular Alternatives